Time;durP1;ratioP1;P1;durP2;ratioP2;P2;SDS_P1;SDS_P2;PMS_P1;PMS_P2;Temp;Humidity;BMP_temperature;BMP_pressure;BME280_temperature;BME280_humidity;BME280_pressure;Samples;Min_cycle;Max_cycle;Signal;HPM_P1;HPM_P2
2021/09/20 00:00:39;;;;;;;2.87;2.00;;;13.80;99.90;;;;;;5092469;28;20563;-74
2021/09/20 00:03:05;;;;;;;2.00;1.90;;;13.80;99.90;;;;;;5092113;28;20264;-74
2021/09/20 00:05:33;;;;;;;1.93;1.80;;;13.80;99.90;;;;;;5092064;28;20238;-74
2021/09/20 00:08:00;;;;;;;3.07;1.90;;;13.80;99.90;;;;;;5092070;28;20211;-74
2021/09/20 00:10:27;;;;;;;2.20;2.10;;;13.80;99.90;;;;;;5092316;28;20238;-74
2021/09/20 00:12:54;;;;;;;2.27;2.10;;;13.80;99.90;;;;;;5091839;28;20203;-74
2021/09/20 00:15:21;;;;;;;2.10;2.00;;;13.90;99.90;;;;;;5091869;28;20227;-74
2021/09/20 00:17:48;;;;;;;2.50;2.20;;;13.80;99.90;;;;;;5091724;28;20207;-73
2021/09/20 00:20:15;;;;;;;2.80;2.10;;;13.80;99.90;;;;;;5091885;28;20207;-74
2021/09/20 00:22:44;;;;;;;2.33;2.13;;;13.80;99.90;;;;;;5091545;28;20275;-72
2021/09/20 00:25:12;;;;;;;2.47;1.93;;;13.80;99.90;;;;;;5091545;28;20659;-73
2021/09/20 00:27:38;;;;;;;2.37;2.00;;;13.80;99.90;;;;;;5091637;28;20230;-73
2021/09/20 00:30:08;;;;;;;2.33;2.13;;;13.80;99.90;;;;;;5091624;28;20275;-74
2021/09/20 00:32:34;;;;;;;2.23;2.13;;;13.80;99.90;;;;;;5091582;28;20198;-75
2021/09/20 00:35:01;;;;;;;2.23;2.03;;;13.60;99.90;;;;;;5091455;28;20211;-74
2021/09/20 00:37:28;;;;;;;2.33;2.23;;;13.60;99.90;;;;;;5091599;28;20258;-75
2021/09/20 00:39:56;;;;;;;2.57;2.10;;;13.60;99.90;;;;;;5090811;28;20685;-74
2021/09/20 00:42:22;;;;;;;2.83;2.00;;;13.60;99.90;;;;;;5089480;28;20264;-74
2021/09/20 00:44:49;;;;;;;5.67;2.13;;;13.60;99.90;;;;;;5091100;28;20312;-74
2021/09/20 00:47:15;;;;;;;1.90;1.80;;;13.60;99.90;;;;;;5091328;28;20206;-74
2021/09/20 00:49:43;;;;;;;2.17;2.07;;;13.70;99.90;;;;;;5091132;28;20244;-74
2021/09/20 00:52:10;;;;;;;3.23;2.60;;;13.60;99.90;;;;;;5091031;28;20199;-74
2021/09/20 00:54:37;;;;;;;4.13;2.20;;;13.70;99.90;;;;;;5090769;28;20210;-74
2021/09/20 00:57:06;;;;;;;2.47;2.27;;;13.70;99.90;;;;;;5090672;28;20203;-74
2021/09/20 00:59:33;;;;;;;4.00;2.37;;;13.70;99.90;;;;;;5091040;28;20248;-74
2021/09/20 01:01:59;;;;;;;2.50;2.23;;;13.70;99.90;;;;;;5091157;28;20263;-75
2021/09/20 01:04:26;;;;;;;2.97;2.30;;;13.70;99.90;;;;;;5090762;28;20207;-74
2021/09/20 01:06:52;;;;;;;3.37;2.30;;;13.60;99.90;;;;;;5090733;28;20207;-74
2021/09/20 01:09:19;;;;;;;3.03;2.43;;;13.60;99.90;;;;;;5090419;28;20203;-74
2021/09/20 01:11:47;;;;;;;2.23;2.03;;;13.60;99.90;;;;;;5090788;28;20211;-75
2021/09/20 01:14:15;;;;;;;2.40;2.20;;;13.60;99.90;;;;;;5090569;28;20265;-74
2021/09/20 01:16:41;;;;;;;5.17;2.33;;;13.60;99.90;;;;;;5090720;28;20303;-75
2021/09/20 01:19:08;;;;;;;2.20;2.10;;;13.60;99.90;;;;;;5090280;28;20777;-75
2021/09/20 01:21:34;;;;;;;5.43;2.20;;;13.60;99.90;;;;;;5090359;28;20203;-73
2021/09/20 01:24:03;;;;;;;2.43;2.00;;;13.70;99.90;;;;;;5090465;28;20260;-74
2021/09/20 01:26:29;;;;;;;2.37;2.17;;;13.70;99.90;;;;;;5089943;28;20304;-72
2021/09/20 01:28:56;;;;;;;2.60;2.03;;;13.60;99.90;;;;;;5090255;28;20264;-73
2021/09/20 01:31:23;;;;;;;3.23;2.30;;;13.60;99.90;;;;;;5090391;28;20234;-72
2021/09/20 01:33:49;;;;;;;2.17;1.97;;;13.60;99.90;;;;;;5090165;28;20230;-73
2021/09/20 01:36:16;;;;;;;1.90;1.80;;;13.50;99.90;;;;;;5090171;28;20226;-73
2021/09/20 01:38:42;;;;;;;2.57;2.27;;;13.50;99.90;;;;;;5090294;28;20311;-72
2021/09/20 01:41:10;;;;;;;3.30;2.20;;;13.50;99.90;;;;;;5090082;28;20234;-73
2021/09/20 01:43:37;;;;;;;3.00;2.30;;;13.60;99.90;;;;;;5090124;28;20676;-73
2021/09/20 01:46:04;;;;;;;3.83;2.30;;;13.60;99.90;;;;;;5089963;28;20262;-73
2021/09/20 01:48:30;;;;;;;4.43;2.33;;;13.60;99.90;;;;;;5090149;28;20235;-73
2021/09/20 01:50:57;;;;;;;3.03;2.17;;;13.60;99.90;;;;;;5089955;28;20203;-74
2021/09/20 01:53:24;;;;;;;2.63;2.40;;;13.60;99.90;;;;;;5089999;28;20272;-74
2021/09/20 01:55:50;;;;;;;2.20;2.10;;;13.60;99.90;;;;;;5089914;28;20242;-72
2021/09/20 01:58:19;;;;;;;2.13;1.93;;;13.60;99.90;;;;;;5089592;28;20241;-73
2021/09/20 02:00:47;;;;;;;3.67;2.90;;;13.60;99.90;;;;;;5090088;28;20206;-73
2021/09/20 02:03:14;;;;;;;3.07;2.37;;;13.60;99.90;;;;;;5089180;28;20707;-73
2021/09/20 02:05:41;;;;;;;2.47;2.13;;;13.60;99.90;;;;;;5089609;28;20258;-72
2021/09/20 02:08:09;;;;;;;2.50;2.30;;;13.60;99.90;;;;;;5089706;28;20215;-72
2021/09/20 02:10:36;;;;;;;3.57;2.23;;;13.50;99.90;;;;;;5089226;28;20573;-72
2021/09/20 02:13:03;;;;;;;3.43;2.17;;;13.50;99.90;;;;;;5089183;28;20715;-72
2021/09/20 02:15:31;;;;;;;2.43;2.23;;;13.50;99.90;;;;;;5089684;28;20263;-73
2021/09/20 02:17:57;;;;;;;3.90;2.37;;;13.50;99.90;;;;;;5089345;28;20283;-72
2021/09/20 02:20:24;;;;;;;2.87;2.50;;;13.50;99.90;;;;;;5089519;28;20260;-72
2021/09/20 02:22:51;;;;;;;2.50;2.30;;;13.50;99.90;;;;;;5089336;28;20211;-72
2021/09/20 02:25:18;;;;;;;2.50;2.30;;;13.50;99.90;;;;;;5089423;28;20304;-72
2021/09/20 02:27:44;;;;;;;4.10;2.30;;;13.50;99.90;;;;;;5089607;28;20199;-73
2021/09/20 02:30:12;;;;;;;3.40;2.03;;;13.50;99.90;;;;;;5089265;28;20772;-74
2021/09/20 02:32:40;;;;;;;3.33;2.60;;;13.50;99.90;;;;;;5089377;28;20230;-74
2021/09/20 02:35:07;;;;;;;4.27;2.70;;;13.50;99.90;;;;;;5088746;28;20766;-74
2021/09/20 02:37:34;;;;;;;2.43;2.23;;;13.50;99.90;;;;;;5089035;28;20207;-74
2021/09/20 02:40:01;;;;;;;2.57;2.37;;;13.50;99.90;;;;;;5089158;28;20198;-74
2021/09/20 02:42:28;;;;;;;3.47;2.60;;;13.50;99.90;;;;;;5087007;28;20669;-74
2021/09/20 02:44:55;;;;;;;4.23;2.67;;;13.50;99.90;;;;;;5086795;28;20202;-74
2021/09/20 02:47:21;;;;;;;2.37;2.00;;;13.40;99.90;;;;;;5086837;28;20238;-74
2021/09/20 02:49:50;;;;;;;3.17;2.50;;;13.40;99.90;;;;;;5086778;28;20235;-74
2021/09/20 02:52:17;;;;;;;4.70;2.40;;;13.40;99.90;;;;;;5086478;28;20276;-77
2021/09/20 02:54:44;;;;;;;3.03;2.60;;;13.40;99.90;;;;;;5087112;28;20290;-77
2021/09/20 02:57:10;;;;;;;4.13;2.73;;;13.40;99.90;;;;;;5086687;28;20653;-77
2021/09/20 02:59:37;;;;;;;2.87;2.40;;;13.40;99.90;;;;;;5086652;28;20199;-72
2021/09/20 03:02:04;;;;;;;3.83;2.40;;;13.40;99.90;;;;;;5086332;28;20214;-72
2021/09/20 03:04:30;;;;;;;2.30;2.10;;;13.40;99.90;;;;;;5085927;28;20754;-71
2021/09/20 03:06:58;;;;;;;2.00;1.90;;;13.40;99.90;;;;;;5086182;28;20314;-71
2021/09/20 03:09:25;;;;;;;3.20;2.40;;;13.40;99.90;;;;;;5122197;27;20734;-73
2021/09/20 03:11:51;;;;;;;3.00;2.17;;;13.40;99.90;;;;;;5113341;27;20206;-73
2021/09/20 03:14:18;;;;;;;5.07;2.30;;;13.30;99.90;;;;;;5107383;28;20365;-73
2021/09/20 03:16:45;;;;;;;5.00;2.77;;;13.30;99.90;;;;;;5107970;28;20206;-73
2021/09/20 03:19:11;;;;;;;2.57;2.37;;;13.30;99.90;;;;;;5108660;28;20236;-73
2021/09/20 03:21:38;;;;;;;2.93;2.30;;;13.40;99.90;;;;;;5108836;28;20247;-73
2021/09/20 03:24:06;;;;;;;3.23;2.17;;;13.30;99.90;;;;;;5108629;28;20202;-73
2021/09/20 03:26:33;;;;;;;4.77;2.23;;;13.40;99.90;;;;;;5108729;28;20234;-73
2021/09/20 03:28:59;;;;;;;3.67;2.83;;;13.40;99.90;;;;;;5108582;28;20240;-73
2021/09/20 03:31:26;;;;;;;2.20;2.10;;;13.30;99.90;;;;;;5108505;28;20657;-73
2021/09/20 03:33:52;;;;;;;3.90;2.60;;;13.30;99.90;;;;;;5101788;28;20260;-73
2021/09/20 03:36:19;;;;;;;2.73;2.47;;;13.30;99.90;;;;;;5088270;28;20258;-73
2021/09/20 03:38:46;;;;;;;5.13;2.43;;;13.20;99.90;;;;;;5088094;28;20291;-73
2021/09/20 03:41:14;;;;;;;3.43;2.20;;;13.30;99.90;;;;;;5088067;28;20207;-73
2021/09/20 03:43:40;;;;;;;3.30;2.40;;;13.30;99.90;;;;;;5088495;28;20559;-73
2021/09/20 03:46:07;;;;;;;2.60;2.40;;;13.30;99.90;;;;;;5087856;28;20272;-73
2021/09/20 03:48:34;;;;;;;2.67;2.07;;;13.30;99.90;;;;;;5088188;28;20206;-73
2021/09/20 03:51:01;;;;;;;2.67;2.47;;;13.30;99.90;;;;;;5088018;28;20207;-73
2021/09/20 03:53:28;;;;;;;2.67;2.47;;;13.30;99.90;;;;;;5088358;28;20207;-73
2021/09/20 03:55:54;;;;;;;5.20;2.50;;;13.30;99.90;;;;;;5088103;28;20256;-73
2021/09/20 03:58:22;;;;;;;4.27;2.57;;;13.30;99.90;;;;;;5087124;28;20319;-73
2021/09/20 04:00:49;;;;;;;2.33;1.93;;;13.30;99.90;;;;;;5088275;28;20210;-73
2021/09/20 04:03:16;;;;;;;3.10;2.30;;;13.30;99.90;;;;;;5087914;28;20198;-73
2021/09/20 04:05:42;;;;;;;4.20;2.53;;;13.30;99.90;;;;;;5087740;28;20684;-73
2021/09/20 04:08:10;;;;;;;2.70;2.50;;;13.30;99.90;;;;;;5088018;28;20621;-73
2021/09/20 04:10:37;;;;;;;6.33;2.80;;;13.30;99.90;;;;;;5087973;28;20207;-73
2021/09/20 04:13:03;;;;;;;6.43;2.93;;;13.30;99.90;;;;;;5087789;28;20642;-73
2021/09/20 04:15:31;;;;;;;2.80;2.60;;;13.20;99.90;;;;;;5087965;28;20315;-73
2021/09/20 04:17:58;;;;;;;3.30;2.70;;;13.20;99.90;;;;;;5087514;28;20677;-73
2021/09/20 04:20:25;;;;;;;5.10;3.03;;;13.10;99.90;;;;;;5088072;28;20233;-72
2021/09/20 04:22:51;;;;;;;2.70;2.30;;;13.10;99.90;;;;;;5087964;28;20268;-73
2021/09/20 04:25:18;;;;;;;2.30;2.10;;;13.00;99.90;;;;;;5087613;28;20246;-73
2021/09/20 04:27:45;;;;;;;3.60;2.37;;;13.00;99.90;;;;;;5091366;28;20640;-73
2021/09/20 04:30:13;;;;;;;2.90;2.03;;;13.10;99.90;;;;;;5091597;28;20230;-73
2021/09/20 04:32:41;;;;;;;5.07;3.23;;;13.10;99.90;;;;;;5091692;28;20242;-73
2021/09/20 04:35:09;;;;;;;4.07;2.50;;;13.10;99.90;;;;;;5091333;28;20255;-73
2021/09/20 04:37:36;;;;;;;3.33;2.53;;;13.20;99.90;;;;;;5091297;28;20280;-73
2021/09/20 04:40:04;;;;;;;2.47;2.27;;;13.10;99.90;;;;;;5091112;28;20652;-73
2021/09/20 04:42:30;;;;;;;4.23;2.20;;;13.20;99.90;;;;;;5091420;28;20210;-73
2021/09/20 04:44:57;;;;;;;2.97;2.13;;;13.20;99.90;;;;;;5090820;28;20669;-73
2021/09/20 04:47:24;;;;;;;3.13;2.10;;;13.20;99.90;;;;;;5091124;28;20230;-73
2021/09/20 04:49:51;;;;;;;2.80;2.60;;;13.20;99.90;;;;;;5090160;28;20264;-73
2021/09/20 04:52:18;;;;;;;2.93;2.43;;;13.20;99.90;;;;;;5091290;28;20207;-73
2021/09/20 04:54:45;;;;;;;3.17;2.23;;;13.10;99.90;;;;;;5091222;28;20248;-73
2021/09/20 04:57:11;;;;;;;2.60;2.40;;;13.20;99.90;;;;;;5090894;28;20245;-73
2021/09/20 04:59:38;;;;;;;2.90;2.70;;;13.20;99.90;;;;;;5091150;28;20597;-73
2021/09/20 05:02:06;;;;;;;4.73;2.50;;;13.20;99.90;;;;;;5091287;28;20211;-73
2021/09/20 05:04:32;;;;;;;2.40;2.20;;;13.20;99.90;;;;;;5091113;28;20207;-73
2021/09/20 05:07:00;;;;;;;2.70;2.50;;;13.20;99.90;;;;;;5090620;28;20755;-73
2021/09/20 05:09:27;;;;;;;2.53;2.30;;;13.20;99.90;;;;;;5090958;28;20202;-73
2021/09/20 05:11:54;;;;;;;3.43;2.60;;;13.20;99.90;;;;;;5091023;28;20246;-73
2021/09/20 05:14:20;;;;;;;4.30;2.40;;;13.20;99.90;;;;;;5090743;28;20254;-73
2021/09/20 05:16:47;;;;;;;2.57;2.37;;;13.20;99.90;;;;;;5090925;28;20211;-73
2021/09/20 05:19:13;;;;;;;2.70;2.50;;;13.20;99.90;;;;;;5090377;28;20681;-73
2021/09/20 05:21:40;;;;;;;3.43;2.60;;;13.20;99.90;;;;;;5090376;28;20252;-73
2021/09/20 05:24:08;;;;;;;2.50;2.40;;;13.20;99.90;;;;;;5090441;28;20627;-73
2021/09/20 05:26:34;;;;;;;2.67;2.30;;;13.20;99.90;;;;;;5090385;28;20753;-72
2021/09/20 05:29:01;;;;;;;4.73;2.23;;;13.20;99.90;;;;;;5090325;28;20238;-73
2021/09/20 05:31:28;;;;;;;2.80;2.60;;;13.20;99.90;;;;;;5090408;28;20283;-73
2021/09/20 05:33:55;;;;;;;3.17;2.43;;;13.30;99.90;;;;;;5090155;28;20287;-73
2021/09/20 05:36:22;;;;;;;3.00;2.30;;;13.30;99.90;;;;;;5090439;28;20205;-73
2021/09/20 05:38:48;;;;;;;3.20;2.40;;;13.30;99.90;;;;;;5089031;28;20712;-73
2021/09/20 05:41:16;;;;;;;5.97;2.60;;;13.20;99.90;;;;;;5090443;28;20203;-73
2021/09/20 05:43:43;;;;;;;2.77;2.57;;;13.30;99.90;;;;;;5089892;28;20672;-73
2021/09/20 05:46:10;;;;;;;3.13;2.17;;;13.40;99.90;;;;;;5090048;28;20279;-73
2021/09/20 05:48:37;;;;;;;2.77;2.57;;;13.30;99.90;;;;;;5090249;28;20235;-73
2021/09/20 05:51:03;;;;;;;2.50;2.30;;;13.30;99.90;;;;;;5090032;28;20283;-72
2021/09/20 05:53:30;;;;;;;5.10;2.60;;;13.40;99.90;;;;;;5090007;28;20206;-72
2021/09/20 05:55:56;;;;;;;5.13;3.10;;;13.40;99.90;;;;;;5089763;28;20210;-73
2021/09/20 05:58:24;;;;;;;4.23;2.50;;;13.50;99.90;;;;;;5089376;28;20493;-73
2021/09/20 06:00:51;;;;;;;4.10;2.40;;;13.40;99.90;;;;;;5089767;28;20735;-72
2021/09/20 06:03:18;;;;;;;2.90;2.70;;;13.40;99.90;;;;;;5089932;28;20659;-72
2021/09/20 06:05:45;;;;;;;2.20;2.10;;;13.30;99.90;;;;;;5089784;28;20202;-73
2021/09/20 06:08:11;;;;;;;2.80;2.60;;;13.30;99.90;;;;;;5089769;28;20231;-72
2021/09/20 06:10:39;;;;;;;4.60;2.90;;;13.30;99.90;;;;;;5089504;28;20268;-73
2021/09/20 06:13:07;;;;;;;3.30;2.60;;;13.20;99.90;;;;;;5089499;28;20223;-73
2021/09/20 06:15:35;;;;;;;3.93;2.70;;;13.20;99.90;;;;;;5089755;28;20218;-73
2021/09/20 06:18:02;;;;;;;3.87;2.93;;;13.30;99.90;;;;;;5089606;28;20245;-72
2021/09/20 06:20:29;;;;;;;4.50;2.80;;;13.30;99.90;;;;;;5089265;28;20242;-72
2021/09/20 06:22:56;;;;;;;2.90;2.47;;;13.30;99.90;;;;;;5089695;28;20230;-73
2021/09/20 06:25:23;;;;;;;3.37;3.07;;;13.30;99.90;;;;;;5106965;28;20228;-73
2021/09/20 06:27:50;;;;;;;5.33;3.10;;;13.30;99.90;;;;;;5109579;28;20715;-73
2021/09/20 06:30:17;;;;;;;3.13;2.83;;;13.20;99.90;;;;;;5109892;27;20251;-73
2021/09/20 06:32:45;;;;;;;3.20;2.87;;;13.20;99.90;;;;;;5109747;28;20206;-73
2021/09/20 06:35:12;;;;;;;4.07;2.90;;;13.30;99.90;;;;;;5109430;27;20218;-73
2021/09/20 06:37:40;;;;;;;3.17;2.70;;;13.20;99.90;;;;;;5109143;28;20704;-73
2021/09/20 06:40:08;;;;;;;3.40;3.03;;;13.10;99.90;;;;;;5109409;28;20247;-73
2021/09/20 06:42:37;;;;;;;4.03;2.90;;;13.20;99.90;;;;;;5109477;28;20202;-73
2021/09/20 06:45:05;;;;;;;3.57;2.43;;;13.20;99.90;;;;;;5109493;27;20241;-73
2021/09/20 06:47:33;;;;;;;6.07;3.10;;;13.30;99.90;;;;;;5109355;28;20584;-73
2021/09/20 06:50:00;;;;;;;4.80;2.70;;;13.20;99.90;;;;;;5108593;28;20554;-73
2021/09/20 06:52:27;;;;;;;4.00;2.70;;;13.20;99.90;;;;;;5109431;28;20202;-73
2021/09/20 06:54:54;;;;;;;2.93;2.33;;;13.20;99.90;;;;;;5109188;28;20226;-73
2021/09/20 06:57:21;;;;;;;3.37;3.07;;;13.20;99.90;;;;;;5108860;28;20261;-73
2021/09/20 06:59:47;;;;;;;5.10;3.00;;;13.30;99.90;;;;;;5109222;28;20257;-73
2021/09/20 07:02:14;;;;;;;4.27;2.47;;;13.30;99.90;;;;;;5108981;28;20279;-73
2021/09/20 07:04:41;;;;;;;3.57;2.83;;;13.40;99.90;;;;;;5109080;28;20234;-73
2021/09/20 07:07:09;;;;;;;3.67;2.67;;;13.40;99.90;;;;;;5108885;28;20222;-73
2021/09/20 07:09:35;;;;;;;3.97;3.07;;;13.40;99.90;;;;;;5108887;28;20234;-73
2021/09/20 07:12:02;;;;;;;2.57;2.37;;;13.40;99.90;;;;;;5108853;28;20307;-73
2021/09/20 07:14:28;;;;;;;3.83;2.90;;;13.50;99.90;;;;;;5108746;28;20233;-73
2021/09/20 07:16:55;;;;;;;3.20;2.90;;;13.40;99.90;;;;;;5108659;28;20271;-73
2021/09/20 07:19:22;;;;;;;4.10;2.63;;;13.30;99.90;;;;;;5108744;28;20209;-73
2021/09/20 07:21:49;;;;;;;3.60;3.00;;;13.40;99.90;;;;;;5108737;28;20213;-73
2021/09/20 07:24:17;;;;;;;3.17;2.77;;;13.50;99.90;;;;;;5108557;28;20202;-73
2021/09/20 07:26:44;;;;;;;4.80;2.57;;;13.50;99.90;;;;;;5108587;28;20230;-73
2021/09/20 07:29:10;;;;;;;3.00;2.57;;;13.60;99.90;;;;;;5108601;28;20202;-73
2021/09/20 07:31:37;;;;;;;2.70;2.50;;;13.70;99.90;;;;;;5108561;28;20655;-73
2021/09/20 07:34:04;;;;;;;4.80;2.70;;;13.60;99.90;;;;;;5108770;28;20229;-73
2021/09/20 07:36:30;;;;;;;2.70;2.43;;;13.50;99.90;;;;;;5108440;28;21016;-73
2021/09/20 07:38:57;;;;;;;5.47;2.43;;;13.50;99.90;;;;;;5108789;28;20263;-73
2021/09/20 07:41:25;;;;;;;3.97;2.80;;;13.60;99.90;;;;;;5108756;28;20245;-73
2021/09/20 07:43:52;;;;;;;2.90;2.70;;;13.50;99.90;;;;;;5108625;28;20206;-73
2021/09/20 07:46:22;;;;;;;10.90;2.80;;;13.50;99.90;;;;;;5108547;28;20259;-73
2021/09/20 07:48:49;;;;;;;3.47;2.90;;;13.70;99.90;;;;;;5108500;28;20241;-73
2021/09/20 07:51:16;;;;;;;6.83;3.00;;;13.70;99.90;;;;;;5108365;28;20206;-74
2021/09/20 07:53:43;;;;;;;3.47;2.50;;;13.80;99.90;;;;;;5108116;28;20585;-73
2021/09/20 07:56:10;;;;;;;3.70;2.93;;;13.70;99.90;;;;;;5108144;28;20234;-73
2021/09/20 07:58:38;;;;;;;4.33;2.80;;;13.70;99.90;;;;;;5108066;28;20230;-73
2021/09/20 08:01:05;;;;;;;2.87;2.43;;;13.70;99.90;;;;;;5109151;28;20364;-73
2021/09/20 08:03:32;;;;;;;4.63;2.73;;;13.80;99.90;;;;;;5112125;28;20710;-73
2021/09/20 08:05:58;;;;;;;3.23;2.90;;;13.90;99.90;;;;;;5112356;28;20262;-73
2021/09/20 08:08:25;;;;;;;4.70;2.53;;;13.90;99.90;;;;;;5112253;28;20298;-73
2021/09/20 08:10:52;;;;;;;2.93;2.60;;;13.90;99.90;;;;;;5111987;28;20687;-73
2021/09/20 08:13:19;;;;;;;5.33;2.63;;;14.00;99.90;;;;;;5112098;27;20703;-73
2021/09/20 08:15:47;;;;;;;3.50;2.67;;;14.00;99.90;;;;;;5112235;28;20201;-73
2021/09/20 08:18:14;;;;;;;4.50;2.80;;;14.00;99.90;;;;;;5112200;28;20242;-73
2021/09/20 08:20:43;;;;;;;5.23;3.00;;;14.10;99.90;;;;;;5112312;28;20202;-73
2021/09/20 08:23:10;;;;;;;4.17;2.93;;;14.20;99.90;;;;;;5112102;28;20202;-73
2021/09/20 08:25:37;;;;;;;3.17;2.97;;;14.20;99.90;;;;;;5111958;28;20202;-73
2021/09/20 08:28:04;;;;;;;3.23;2.70;;;14.20;99.90;;;;;;5111821;28;20233;-73
2021/09/20 08:30:32;;;;;;;4.07;3.03;;;14.30;99.90;;;;;;5111892;28;20557;-73
2021/09/20 08:33:00;;;;;;;3.27;2.90;;;14.30;99.90;;;;;;5112024;28;20267;-73
2021/09/20 08:35:27;;;;;;;3.10;2.80;;;14.40;99.90;;;;;;5111832;27;20253;-73
2021/09/20 08:37:53;;;;;;;3.63;2.60;;;14.50;99.90;;;;;;5111820;28;20222;-73
2021/09/20 08:40:20;;;;;;;4.03;2.73;;;14.60;99.90;;;;;;5111824;28;20240;-73
2021/09/20 08:42:47;;;;;;;3.87;2.70;;;14.70;99.90;;;;;;5111746;28;20213;-73
2021/09/20 08:45:17;;;;;;;3.10;2.80;;;14.70;99.90;;;;;;5111730;28;20245;-73
2021/09/20 08:47:47;;;;;;;3.73;2.63;;;14.80;99.90;;;;;;5111785;28;20265;-73
2021/09/20 08:50:17;;;;;;;4.20;2.70;;;15.00;99.90;;;;;;5111665;28;20206;-73
2021/09/20 08:52:44;;;;;;;5.43;2.90;;;15.10;99.90;;;;;;5111771;28;20267;-73
2021/09/20 08:55:11;;;;;;;4.30;2.43;;;15.10;99.90;;;;;;5094043;28;20199;-73
2021/09/20 08:57:38;;;;;;;7.90;2.90;;;15.30;99.90;;;;;;5090886;28;20238;-73
2021/09/20 09:00:07;;;;;;;3.67;2.47;;;15.40;99.90;;;;;;5091058;28;20252;-73
2021/09/20 09:02:33;;;;;;;9.80;3.00;;;15.50;99.90;;;;;;5091016;28;20245;-73
2021/09/20 09:05:23;;;;;;;2.60;2.40;;;15.50;99.90;;;;;;5090919;28;20230;-73
2021/09/20 09:07:52;;;;;;;4.57;2.47;;;15.60;99.90;;;;;;5090815;28;20272;-73
2021/09/20 09:10:19;;;;;;;2.40;2.30;;;15.60;99.90;;;;;;5090675;28;20271;-73
2021/09/20 09:12:46;;;;;;;3.13;2.23;;;15.70;99.90;;;;;;5089414;28;20758;-73
2021/09/20 09:15:15;;;;;;;2.40;2.20;;;15.70;99.90;;;;;;5090551;28;20256;-73
2021/09/20 09:17:44;;;;;;;2.97;2.50;;;15.80;99.90;;;;;;5090725;28;20251;-73
2021/09/20 09:20:13;;;;;;;3.73;2.80;;;15.90;99.90;;;;;;5090467;28;20260;-73
2021/09/20 09:22:44;;;;;;;2.47;2.23;;;15.90;99.90;;;;;;5090586;28;20252;-73
2021/09/20 09:25:13;;;;;;;3.17;2.50;;;15.90;99.90;;;;;;5090322;28;20256;-73
2021/09/20 09:27:41;;;;;;;2.83;2.10;;;16.00;99.90;;;;;;5090681;28;20226;-73
2021/09/20 09:30:14;;;;;;;3.43;2.30;;;16.10;99.90;;;;;;5090629;28;20334;-73
2021/09/20 09:32:43;;;;;;;3.37;2.10;;;16.30;99.90;;;;;;5090727;28;20276;-73
2021/09/20 09:35:11;;;;;;;4.57;2.40;;;16.40;99.90;;;;;;5090187;28;20906;-73
2021/09/20 09:37:40;;;;;;;2.53;2.00;;;16.40;99.90;;;;;;5090419;28;20235;-73
2021/09/20 09:40:18;;;;;;;2.20;2.00;;;16.50;99.90;;;;;;5090248;28;20248;-73
2021/09/20 09:42:45;;;;;;;3.43;2.00;;;16.70;99.90;;;;;;5090414;28;20203;-73
2021/09/20 09:45:17;;;;;;;2.17;1.90;;;16.90;99.90;;;;;;5089881;28;20271;-73
2021/09/20 09:47:44;;;;;;;3.83;1.97;;;17.00;99.90;;;;;;5090249;28;20227;-73
2021/09/20 09:50:16;;;;;;;2.60;1.80;;;17.10;99.90;;;;;;5089930;28;20238;-73
2021/09/20 09:52:43;;;;;;;2.70;2.30;;;17.10;99.90;;;;;;5090144;28;20203;-73
2021/09/20 09:55:12;;;;;;;3.53;2.47;;;17.20;99.90;;;;;;5089849;28;20203;-73
2021/09/20 09:57:39;;;;;;;2.33;2.10;;;17.20;99.90;;;;;;5089817;28;20243;-73
2021/09/20 10:00:09;;;;;;;2.17;1.97;;;17.30;99.90;;;;;;5089904;28;20217;-74
2021/09/20 10:02:38;;;;;;;3.13;2.20;;;17.40;99.90;;;;;;5090025;28;20245;-73
2021/09/20 10:05:07;;;;;;;4.43;2.20;;;17.60;99.90;;;;;;5089907;28;20207;-73
2021/09/20 10:07:35;;;;;;;3.87;2.50;;;17.70;99.90;;;;;;5089643;28;20229;-73
2021/09/20 10:10:05;;;;;;;2.27;2.17;;;17.80;99.90;;;;;;5089641;28;20260;-73
2021/09/20 10:12:33;;;;;;;5.87;2.47;;;17.70;99.90;;;;;;5089513;28;20219;-73
2021/09/20 10:15:01;;;;;;;3.97;2.17;;;17.60;99.90;;;;;;5089794;28;20202;-73
2021/09/20 10:17:29;;;;;;;2.83;2.13;;;17.60;99.90;;;;;;5089380;28;20661;-73
2021/09/20 10:19:57;;;;;;;2.07;1.90;;;17.70;99.90;;;;;;5089490;28;20726;-73
2021/09/20 10:22:26;;;;;;;2.30;2.10;;;17.80;99.90;;;;;;5089363;28;20205;-73
2021/09/20 10:24:55;;;;;;;1.97;1.87;;;18.00;99.90;;;;;;5089037;28;20205;-73
2021/09/20 10:27:24;;;;;;;2.60;2.00;;;18.00;99.90;;;;;;5089089;28;20599;-73
2021/09/20 10:29:55;;;;;;;3.77;2.17;;;17.90;99.90;;;;;;5089450;28;20211;-73
2021/09/20 10:32:25;;;;;;;2.20;2.10;;;17.90;99.90;;;;;;5089317;28;20225;-73
2021/09/20 10:34:52;;;;;;;2.13;2.03;;;17.80;99.90;;;;;;5089120;28;20219;-73
2021/09/20 10:37:25;;;;;;;2.83;2.20;;;17.80;99.90;;;;;;5089156;28;20280;-73
2021/09/20 10:39:58;;;;;;;1.83;1.70;;;17.70;99.90;;;;;;5089148;28;20222;-73
2021/09/20 10:42:47;;;;;;;5.73;2.10;;;17.60;99.90;;;;;;5086583;28;20206;-73
2021/09/20 10:45:52;;;;;;;2.83;2.20;;;17.50;99.90;;;;;;5088971;28;20199;-73
2021/09/20 10:48:39;;;;;;;2.67;2.47;;;17.30;99.90;;;;;;5088890;28;20303;-73
2021/09/20 10:51:17;;;;;;;3.47;2.20;;;17.10;99.90;;;;;;5089036;28;20191;-73
2021/09/20 10:53:44;;;;;;;3.30;2.37;;;16.90;99.90;;;;;;5088880;28;20195;-73
2021/09/20 10:56:17;;;;;;;2.80;2.20;;;16.90;99.90;;;;;;5088831;28;20238;-73
2021/09/20 10:59:08;;;;;;;3.23;2.40;;;16.80;99.90;;;;;;5088361;28;20234;-73
2021/09/20 11:01:35;;;;;;;2.00;1.77;;;16.70;99.90;;;;;;5088206;28;20214;-73
2021/09/20 11:04:05;;;;;;;2.73;2.47;;;16.70;99.90;;;;;;5088736;28;20221;-73
2021/09/20 11:06:34;;;;;;;3.37;2.17;;;16.60;99.90;;;;;;5088680;28;20202;-73
2021/09/20 11:09:38;;;;;;;2.60;2.40;;;16.60;99.90;;;;;;5088344;28;20705;-73
2021/09/20 11:12:07;;;;;;;2.67;2.27;;;16.60;99.90;;;;;;5088393;28;20704;-73
2021/09/20 11:14:46;;;;;;;2.17;1.97;;;16.70;99.90;;;;;;5088505;28;20211;-74
2021/09/20 11:17:25;;;;;;;2.47;2.27;;;16.60;99.90;;;;;;5088618;28;20230;-73
2021/09/20 11:19:56;;;;;;;2.37;2.10;;;16.50;99.90;;;;;;5088606;28;20221;-73
2021/09/20 11:22:25;;;;;;;4.67;2.60;;;16.50;99.90;;;;;;5088342;28;20245;-73
2021/09/20 11:24:55;;;;;;;2.27;2.17;;;16.50;99.90;;;;;;5088149;28;20243;-73
2021/09/20 11:27:28;;;;;;;2.50;2.20;;;16.40;99.90;;;;;;5088333;28;20695;-74
2021/09/20 11:29:57;;;;;;;3.70;2.40;;;16.30;99.90;;;;;;5088361;28;20234;-73
2021/09/20 11:32:25;;;;;;;4.70;2.40;;;16.20;99.90;;;;;;5088428;28;20230;-74
2021/09/20 11:34:55;;;;;;;2.90;2.63;;;16.20;99.90;;;;;;5088304;28;20222;-73
2021/09/20 11:37:24;;;;;;;3.73;2.30;;;16.20;99.90;;;;;;5087363;28;20708;-73
2021/09/20 11:39:52;;;;;;;2.97;2.30;;;16.10;99.90;;;;;;5088357;28;20271;-74
2021/09/20 11:42:21;;;;;;;2.53;2.10;;;16.10;99.90;;;;;;5088265;28;20291;-74
2021/09/20 11:44:51;;;;;;;4.57;2.60;;;16.10;99.90;;;;;;5088232;28;20291;-73
2021/09/20 11:47:20;;;;;;;2.93;2.30;;;16.10;99.90;;;;;;5088396;28;20223;-74
2021/09/20 11:49:48;;;;;;;2.37;2.13;;;16.10;99.90;;;;;;5088026;28;20359;-73
2021/09/20 11:52:16;;;;;;;2.50;2.30;;;16.00;99.90;;;;;;5087888;28;20206;-74
2021/09/20 11:54:48;;;;;;;3.13;2.30;;;16.10;99.90;;;;;;5088093;28;20591;-74
2021/09/20 11:57:21;;;;;;;3.27;2.50;;;16.00;99.90;;;;;;5087865;28;20286;-74
2021/09/20 11:59:49;;;;;;;8.23;3.30;;;16.00;99.90;;;;;;5088248;28;20206;-74
2021/09/20 12:02:32;;;;;;;3.90;3.33;;;16.00;99.90;;;;;;5087941;28;20256;-74
2021/09/20 12:04:59;;;;;;;2.63;2.43;;;16.00;99.90;;;;;;5086141;28;20261;-74
2021/09/20 12:07:31;;;;;;;4.37;2.47;;;16.00;99.90;;;;;;5088014;28;20232;-73
2021/09/20 12:09:59;;;;;;;2.80;2.33;;;16.00;99.90;;;;;;5087948;28;20219;-74
2021/09/20 12:12:28;;;;;;;2.90;2.60;;;16.00;99.90;;;;;;5087789;28;20226;-74
2021/09/20 12:15:01;;;;;;;3.33;2.77;;;16.00;99.90;;;;;;5087898;28;20244;-74
2021/09/20 12:17:51;;;;;;;5.33;2.23;;;16.00;99.90;;;;;;5087984;28;20191;-74
2021/09/20 12:20:18;;;;;;;6.90;3.10;;;16.00;99.90;;;;;;5087871;28;20206;-73
2021/09/20 12:22:49;;;;;;;14.33;2.63;;;15.90;99.90;;;;;;5087974;28;20241;-73
2021/09/20 12:25:24;;;;;;;5.30;3.00;;;16.00;99.90;;;;;;5087953;28;20211;-73
2021/09/20 12:27:52;;;;;;;3.70;2.77;;;16.00;99.90;;;;;;5087805;28;20194;-74
2021/09/20 12:30:21;;;;;;;3.63;2.90;;;16.00;99.90;;;;;;5087566;28;20262;-73
2021/09/20 12:32:49;;;;;;;3.97;2.40;;;16.00;99.90;;;;;;5087366;28;20770;-74
2021/09/20 12:35:16;;;;;;;4.33;2.60;;;16.00;99.90;;;;;;5087644;28;20234;-73
2021/09/20 12:37:43;;;;;;;2.80;2.60;;;16.00;99.90;;;;;;5087751;28;20640;-74
2021/09/20 12:40:18;;;;;;;2.87;2.67;;;15.90;99.90;;;;;;5086767;28;20207;-74
2021/09/20 12:43:07;;;;;;;4.03;2.87;;;16.00;99.90;;;;;;5087745;28;20267;-73
2021/09/20 12:45:38;;;;;;;3.60;2.63;;;16.00;99.90;;;;;;5087682;28;20195;-73
2021/09/20 12:48:06;;;;;;;4.93;2.97;;;16.00;99.90;;;;;;5089704;28;20646;-73
2021/09/20 12:50:38;;;;;;;3.07;2.43;;;16.00;99.90;;;;;;5091282;28;20209;-73
2021/09/20 12:53:06;;;;;;;3.43;2.80;;;16.00;99.90;;;;;;5091291;28;20191;-73